Time;durP1;ratioP1;P1;durP2;ratioP2;P2;SDS_P1;SDS_P2;PMS_P1;PMS_P2;Temp;Humidity;BMP_temperature;BMP_pressure;BME280_temperature;BME280_humidity;BME280_pressure;Samples;Min_cycle;Max_cycle;Signal;HPM_P1;HPM_P2
2021/03/02 00:00:13;;;;;;;13.15;8.98;;;;;;;5.76;62.24;102242.69;1678979;84;21203;-65
2021/03/02 00:02:42;;;;;;;11.30;7.72;;;;;;;5.73;62.19;102244.78;1687721;84;21151;-65
2021/03/02 00:05:12;;;;;;;11.10;8.10;;;;;;;5.66;62.37;102240.16;1679157;84;21356;-65
2021/03/02 00:07:40;;;;;;;12.85;9.30;;;;;;;5.70;62.21;102237.23;1679286;85;21183;-58
2021/03/02 00:10:10;;;;;;;12.73;9.60;;;;;;;5.72;62.14;102242.09;1678976;84;21877;-65
2021/03/02 00:12:39;;;;;;;10.78;8.08;;;;;;;5.69;62.45;102238.06;1693517;84;21292;-64
2021/03/02 00:15:09;;;;;;;13.78;9.63;;;;;;;5.75;62.52;102236.55;1707636;83;21610;-64
2021/03/02 00:17:46;;;;;;;12.37;8.43;;;;;;;5.79;62.26;102233.23;1690860;85;21623;-58
2021/03/02 00:20:17;;;;;;;11.20;8.70;;;;;;;5.78;62.02;102230.58;1696805;82;21139;-65
2021/03/02 00:23:09;;;;;;;12.45;8.83;;;;;;;5.75;61.82;102231.33;1692168;85;21534;-64
2021/03/02 00:25:41;;;;;;;10.50;7.58;;;;;;;5.68;61.88;102229.75;1691895;83;21448;-65
2021/03/02 00:28:10;;;;;;;13.68;8.50;;;;;;;5.59;61.88;102229.87;1694987;84;21203;-58
2021/03/02 00:30:38;;;;;;;11.43;8.63;;;;;;;5.60;61.99;102235.56;1732977;82;21709;-58
2021/03/02 00:33:07;;;;;;;13.55;9.10;;;;;;;5.62;62.17;102229.98;1748214;82;21167;-65
2021/03/02 00:35:35;;;;;;;11.90;8.48;;;;;;;5.68;62.10;102223.22;1747740;81;21167;-58
2021/03/02 00:38:03;;;;;;;11.70;7.95;;;;;;;5.71;61.90;102224.23;1748055;82;21139;-58
2021/03/02 00:40:31;;;;;;;12.65;8.43;;;;;;;5.70;61.60;102230.30;1747685;82;21147;-65
2021/03/02 00:42:58;;;;;;;11.85;8.28;;;;;;;5.63;61.58;102228.28;1747661;81;21535;-58
2021/03/02 00:45:26;;;;;;;11.93;8.63;;;;;;;5.61;61.89;102233.86;1748350;81;21539;-58
2021/03/02 00:47:54;;;;;;;11.35;8.45;;;;;;;5.64;61.85;102224.84;1748078;82;21159;-58
2021/03/02 00:50:23;;;;;;;10.18;7.35;;;;;;;5.67;61.66;102218.42;1726506;82;21595;-64
2021/03/02 00:52:51;;;;;;;11.90;8.45;;;;;;;5.66;61.62;102220.56;1710800;82;21562;-58
2021/03/02 00:55:21;;;;;;;11.00;8.10;;;;;;;5.67;61.58;102215.81;1747835;81;21192;-65
2021/03/02 00:57:49;;;;;;;11.35;8.43;;;;;;;5.68;61.48;102212.36;1747499;82;21131;-65
2021/03/02 01:00:20;;;;;;;11.87;8.50;;;;;;;5.65;61.34;102212.25;1748539;82;21199;-59
2021/03/02 01:02:48;;;;;;;10.90;7.33;;;;;;;5.61;61.57;102212.96;1747452;82;21127;-65
2021/03/02 01:05:16;;;;;;;11.18;8.03;;;;;;;5.62;61.47;102209.09;1748248;81;21586;-65
2021/03/02 01:07:44;;;;;;;12.07;8.25;;;;;;;5.63;61.56;102202.16;1747487;82;21167;-58
2021/03/02 01:10:14;;;;;;;13.78;8.18;;;;;;;5.64;61.57;102198.28;1747343;81;21143;-65
2021/03/02 01:12:44;;;;;;;10.40;7.47;;;;;;;5.68;61.68;102194.08;1734260;81;21292;-58
2021/03/02 01:15:13;;;;;;;10.85;8.23;;;;;;;5.73;61.69;102193.84;1718442;82;21163;-64
2021/03/02 01:17:41;;;;;;;11.28;8.33;;;;;;;5.75;61.57;102201.71;1737150;82;21103;-65
2021/03/02 01:20:10;;;;;;;11.10;7.78;;;;;;;5.73;61.48;102191.62;1747630;81;21568;-64
2021/03/02 01:22:39;;;;;;;11.12;7.67;;;;;;;5.75;61.62;102188.65;1748533;82;21143;-58
2021/03/02 01:25:11;;;;;;;10.48;7.55;;;;;;;5.82;61.71;102188.05;1748072;81;21149;-58
2021/03/02 01:27:39;;;;;;;10.85;8.00;;;;;;;5.88;61.69;102184.75;1747095;82;21297;-58
2021/03/02 01:30:09;;;;;;;11.50;8.50;;;;;;;5.91;61.66;102179.23;1759712;80;21211;-65
2021/03/02 01:32:37;;;;;;;9.73;7.40;;;;;;;5.96;61.50;102178.95;1761959;81;21149;-65
2021/03/02 01:35:11;;;;;;;10.60;7.92;;;;;;;5.95;61.35;102181.53;1761449;80;21285;-64
2021/03/02 01:37:39;;;;;;;10.50;7.78;;;;;;;5.91;61.13;102183.56;1760079;81;21550;-65
2021/03/02 01:40:16;;;;;;;9.65;7.40;;;;;;;5.84;60.85;102186.78;1761903;80;21107;-58
2021/03/02 01:42:44;;;;;;;11.38;7.28;;;;;;;5.70;60.52;102184.97;1761447;81;21167;-65
2021/03/02 01:45:14;;;;;;;9.18;6.95;;;;;;;5.58;60.79;102188.90;1758341;80;21330;-65
2021/03/02 01:47:42;;;;;;;9.80;6.30;;;;;;;5.51;60.71;102182.57;1752175;81;21190;-58
2021/03/02 01:50:12;;;;;;;8.85;6.53;;;;;;;5.50;60.88;102183.41;1751330;81;21604;-58
2021/03/02 01:52:40;;;;;;;9.28;6.92;;;;;;;5.47;60.56;102183.28;1730019;82;21155;-65
2021/03/02 01:55:08;;;;;;;11.10;7.50;;;;;;;5.40;61.04;102181.70;1739086;81;21157;-58
2021/03/02 01:57:35;;;;;;;9.63;6.55;;;;;;;5.49;61.08;102184.23;1761001;81;21557;-58
2021/03/02 02:00:15;;;;;;;9.08;6.70;;;;;;;5.57;61.08;102191.04;1761391;80;21159;-65
2021/03/02 02:02:53;;;;;;;10.05;7.25;;;;;;;5.64;61.05;102186.52;1761381;81;21175;-58
2021/03/02 02:05:21;;;;;;;9.35;6.37;;;;;;;5.67;60.80;102181.84;1732222;80;21562;-65
2021/03/02 02:07:56;;;;;;;10.48;7.12;;;;;;;5.68;60.79;102184.94;1744816;81;21606;-58
2021/03/02 02:10:31;;;;;;;12.37;7.47;;;;;;;5.69;60.83;102182.80;1744788;81;21175;-64
2021/03/02 02:13:08;;;;;;;10.20;6.72;;;;;;;5.71;60.79;102178.52;1761414;81;21574;-59
2021/03/02 02:15:37;;;;;;;9.55;6.03;;;;;;;5.69;60.75;102174.05;1754989;80;21213;-58
2021/03/02 02:18:19;;;;;;;6.47;3.85;;;;;;;5.69;60.33;102166.21;1761612;81;21277;-65
2021/03/02 02:21:11;;;;;;;6.10;4.12;;;;;;;5.66;58.58;102165.70;1758685;80;21182;-65
2021/03/02 02:24:17;;;;;;;5.70;3.85;;;;;;;5.63;59.01;102166.89;1756375;81;21542;-58
2021/03/02 02:26:58;;;;;;;6.42;4.28;;;;;;;5.65;59.20;102162.61;1716359;83;21168;-64
2021/03/02 02:29:34;;;;;;;7.85;4.80;;;;;;;5.67;58.72;102160.95;1712140;83;21683;-58
2021/03/02 02:32:03;;;;;;;8.75;4.75;;;;;;;5.65;58.58;102156.95;1732921;81;21151;-58
2021/03/02 02:34:32;;;;;;;6.17;4.08;;;;;;;5.56;58.50;102157.04;1753209;82;21150;-58
2021/03/02 02:37:01;;;;;;;6.25;4.30;;;;;;;5.53;58.33;102156.92;1737308;82;21150;-65
2021/03/02 02:39:31;;;;;;;6.42;4.25;;;;;;;5.49;58.67;102159.42;1741726;82;21285;-65
2021/03/02 02:41:58;;;;;;;7.70;5.03;;;;;;;5.53;58.41;102155.62;1727013;82;21277;-58
2021/03/02 02:44:25;;;;;;;8.10;4.03;;;;;;;5.52;58.52;102154.70;1689101;85;21233;-64
2021/03/02 02:46:56;;;;;;;7.20;5.50;;;;;;;5.54;58.39;102158.27;1737659;82;21158;-58
2021/03/02 02:49:24;;;;;;;6.50;4.05;;;;;;;5.58;58.48;102157.55;1756238;82;21159;-65
2021/03/02 02:51:51;;;;;;;6.90;4.80;;;;;;;5.61;58.45;102158.10;1754747;82;21143;-65
2021/03/02 02:54:19;;;;;;;5.35;4.22;;;;;;;5.64;58.48;102161.70;1755980;81;21314;-65
2021/03/02 02:56:46;;;;;;;7.87;4.83;;;;;;;5.64;58.01;102159.09;1756026;81;21297;-65
2021/03/02 02:59:23;;;;;;;7.33;4.85;;;;;;;5.60;58.08;102160.23;1756007;82;21205;-58
2021/03/02 03:01:55;;;;;;;6.22;4.40;;;;;;;5.59;58.09;102163.25;1729217;82;21301;-65
2021/03/02 03:04:27;;;;;;;8.88;5.20;;;;;;;5.59;58.12;102165.86;1755950;82;21194;-58
2021/03/02 03:06:56;;;;;;;7.70;4.95;;;;;;;5.58;58.32;102167.12;1756294;82;21115;-64
2021/03/02 03:09:24;;;;;;;8.58;5.87;;;;;;;5.60;58.50;102168.95;1752443;80;21318;-64
2021/03/02 03:12:01;;;;;;;8.85;5.85;;;;;;;5.63;58.62;102167.76;1750627;82;21127;-59
2021/03/02 03:14:30;;;;;;;7.22;4.55;;;;;;;5.69;58.53;102164.91;1753461;82;21159;-64
2021/03/02 03:16:57;;;;;;;5.83;4.05;;;;;;;5.66;58.45;102169.19;1756164;82;21324;-58
2021/03/02 03:19:27;;;;;;;7.05;4.58;;;;;;;5.63;58.07;102166.89;1736609;80;21175;-58
2021/03/02 03:21:55;;;;;;;7.75;4.80;;;;;;;5.56;58.08;102164.88;1755384;82;21103;-58
2021/03/02 03:24:23;;;;;;;7.30;4.92;;;;;;;5.47;57.89;102161.08;1756151;82;21147;-64
2021/03/02 03:26:51;;;;;;;7.08;4.80;;;;;;;5.38;58.04;102158.55;1755537;82;21134;-58
2021/03/02 03:29:19;;;;;;;8.05;5.67;;;;;;;5.36;58.36;102153.25;1753367;81;21199;-64
2021/03/02 03:31:46;;;;;;;7.37;4.85;;;;;;;5.36;58.34;102151.95;1737849;82;21171;-59
2021/03/02 03:34:14;;;;;;;8.23;5.17;;;;;;;5.36;58.20;102151.55;1748309;82;21155;-64
2021/03/02 03:36:43;;;;;;;6.80;4.67;;;;;;;5.41;58.18;102153.02;1747507;81;21138;-64
2021/03/02 03:39:11;;;;;;;6.85;4.55;;;;;;;5.39;57.95;102153.38;1737704;82;21179;-58
2021/03/02 03:41:39;;;;;;;4.33;2.80;;;;;;;5.37;57.60;102147.20;1747198;81;21160;-58
2021/03/02 03:44:06;;;;;;;4.12;2.67;;;;;;;5.30;56.24;102144.78;1747914;82;21120;-58
2021/03/02 03:46:34;;;;;;;5.30;2.80;;;;;;;5.31;55.98;102143.05;1738121;82;21123;-58
2021/03/02 03:49:02;;;;;;;3.45;2.25;;;;;;;5.32;55.82;102142.22;1739937;82;21167;-58
2021/03/02 03:51:30;;;;;;;5.50;3.20;;;;;;;5.33;56.19;102139.68;1717277;83;21201;-64
2021/03/02 03:53:58;;;;;;;5.30;3.35;;;;;;;5.35;56.11;102144.55;1707213;83;21240;-64
2021/03/02 03:56:25;;;;;;;5.42;3.33;;;;;;;5.36;56.34;102141.10;1746103;81;21175;-64
2021/03/02 03:58:53;;;;;;;4.92;3.45;;;;;;;5.38;56.31;102143.75;1736880;82;21139;-58
2021/03/02 04:01:20;;;;;;;6.47;3.80;;;;;;;5.40;55.61;102134.26;1748101;82;21193;-58
2021/03/02 04:03:48;;;;;;;4.33;2.87;;;;;;;5.36;55.33;102135.88;1738321;82;21112;-65
2021/03/02 04:06:15;;;;;;;4.33;3.20;;;;;;;5.33;54.88;102138.37;1747973;81;21167;-64
2021/03/02 04:08:43;;;;;;;5.50;4.05;;;;;;;5.31;55.25;102145.26;1747471;82;21135;-58
2021/03/02 04:11:10;;;;;;;5.47;3.58;;;;;;;5.30;55.48;102139.56;1748238;81;21161;-58
2021/03/02 04:13:39;;;;;;;4.95;3.35;;;;;;;5.30;55.53;102138.26;1694900;82;21143;-58
2021/03/02 04:16:06;;;;;;;4.75;3.37;;;;;;;5.31;55.43;102138.73;1748154;81;21192;-58
2021/03/02 04:18:34;;;;;;;5.00;3.12;;;;;;;5.29;55.45;102127.34;1747581;82;21119;-58
2021/03/02 04:21:03;;;;;;;4.40;3.27;;;;;;;5.31;55.48;102139.13;1748087;82;21131;-65
2021/03/02 04:23:30;;;;;;;5.92;3.85;;;;;;;5.27;55.08;102127.70;1747493;81;21139;-58
2021/03/02 04:25:57;;;;;;;4.37;3.00;;;;;;;5.23;55.35;102128.84;1747684;81;21183;-58
2021/03/02 04:28:25;;;;;;;5.00;2.98;;;;;;;5.19;55.28;102132.64;1718688;83;21630;-58
2021/03/02 04:30:53;;;;;;;5.37;3.58;;;;;;;5.16;55.35;102130.30;1729134;81;21272;-64
2021/03/02 04:33:21;;;;;;;6.35;3.33;;;;;;;5.16;55.76;102133.82;1731406;82;21154;-65
2021/03/02 04:35:49;;;;;;;6.42;3.83;;;;;;;5.19;55.95;102134.34;1731253;81;21152;-58
2021/03/02 04:38:16;;;;;;;6.92;4.33;;;;;;;5.19;56.23;102137.86;1755189;81;21186;-65
2021/03/02 04:40:44;;;;;;;6.70;4.42;;;;;;;5.20;56.39;102137.03;1755800;81;21160;-58
2021/03/02 04:43:12;;;;;;;7.28;4.45;;;;;;;5.19;56.59;102135.25;1761366;81;21133;-64
2021/03/02 04:45:41;;;;;;;5.53;3.52;;;;;;;5.16;56.78;102133.82;1758366;81;21119;-64
2021/03/02 04:48:10;;;;;;;6.15;4.37;;;;;;;5.16;56.86;102139.44;1761470;81;21154;-64
2021/03/02 04:50:37;;;;;;;7.90;4.10;;;;;;;5.18;56.72;102136.47;1756854;80;21495;-65
2021/03/02 04:53:06;;;;;;;8.33;3.77;;;;;;;5.18;56.95;102136.08;1761528;81;21115;-65
2021/03/02 04:55:34;;;;;;;19.90;5.50;;;;;;;5.21;56.77;102136.20;1710806;83;21303;-65
2021/03/02 04:58:02;;;;;;;7.35;4.10;;;;;;;5.25;57.32;102133.70;1724727;83;21134;-64
2021/03/02 05:00:30;;;;;;;9.08;4.70;;;;;;;5.31;57.30;102136.13;1699781;84;21136;-64
2021/03/02 05:02:57;;;;;;;6.72;3.77;;;;;;;5.38;57.45;102137.66;1713699;83;21146;-58
2021/03/02 05:05:25;;;;;;;6.83;3.35;;;;;;;5.46;57.66;102137.53;1716176;82;21154;-58
2021/03/02 05:07:54;;;;;;;8.63;3.87;;;;;;;5.53;57.61;102133.41;1716089;83;21864;-58
2021/03/02 05:10:21;;;;;;;4.83;3.22;;;;;;;5.66;57.37;102131.73;1725641;82;21184;-59
2021/03/02 05:12:48;;;;;;;5.12;2.62;;;;;;;5.73;56.76;102135.44;1718236;83;21135;-64
2021/03/02 05:15:16;;;;;;;5.10;2.58;;;;;;;5.76;55.74;102142.09;1725440;83;21288;-64
2021/03/02 05:17:44;;;;;;;5.75;2.70;;;;;;;5.66;55.67;102132.61;1724925;83;21135;-64
2021/03/02 05:20:14;;;;;;;3.85;2.33;;;;;;;5.64;55.49;102137.31;1719029;82;21212;-64
2021/03/02 05:22:41;;;;;;;4.85;2.90;;;;;;;5.61;55.49;102130.67;1725623;83;21163;-64
2021/03/02 05:25:11;;;;;;;4.40;2.50;;;;;;;5.60;55.20;102130.20;1725363;83;21154;-64
2021/03/02 05:27:38;;;;;;;4.12;2.45;;;;;;;5.56;55.14;102138.75;1721450;83;21289;-64
2021/03/02 05:30:08;;;;;;;3.98;2.55;;;;;;;5.54;55.21;102138.68;1716928;83;21135;-59
2021/03/02 05:32:35;;;;;;;3.98;2.75;;;;;;;5.55;55.18;102131.31;1703167;84;21697;-64
2021/03/02 05:35:06;;;;;;;3.67;2.37;;;;;;;5.56;55.60;102130.48;1743820;81;21296;-58
2021/03/02 05:37:33;;;;;;;5.93;2.33;;;;;;;5.59;55.27;102135.83;1683028;85;21585;-59
2021/03/02 05:40:01;;;;;;;4.03;2.52;;;;;;;5.57;55.00;102134.87;1718379;82;21206;-64
2021/03/02 05:42:28;;;;;;;3.87;2.75;;;;;;;5.60;54.69;102144.56;1721332;82;21159;-64
2021/03/02 05:44:56;;;;;;;4.75;3.05;;;;;;;5.57;54.81;102141.84;1697150;84;21304;-65
2021/03/02 05:47:24;;;;;;;7.58;5.03;;;;;;;5.53;54.41;102137.33;1726704;82;21179;-59
2021/03/02 05:49:52;;;;;;;4.67;2.90;;;;;;;5.50;54.67;102141.61;1716870;83;21201;-64
2021/03/02 05:52:19;;;;;;;5.80;3.30;;;;;;;5.51;54.97;102146.44;1717024;83;21578;-64
2021/03/02 05:54:46;;;;;;;4.80;3.40;;;;;;;5.54;55.25;102142.59;1740495;82;21139;-59
2021/03/02 05:57:14;;;;;;;5.22;3.35;;;;;;;5.55;55.38;102138.28;1747794;82;21167;-60
2021/03/02 05:59:42;;;;;;;5.35;3.65;;;;;;;5.58;55.65;102140.58;1698001;84;21534;-59
2021/03/02 06:02:09;;;;;;;16.30;6.45;;;;;;;5.60;55.69;102132.81;1746411;82;21155;-59
2021/03/02 06:04:37;;;;;;;6.67;4.70;;;;;;;5.63;56.33;102127.70;1745438;82;21179;-65
2021/03/02 06:07:05;;;;;;;6.35;4.08;;;;;;;5.66;56.16;102129.99;1717159;83;21583;-60
2021/03/02 06:09:33;;;;;;;7.03;4.47;;;;;;;5.68;56.25;102130.06;1717739;82;21131;-60
2021/03/02 06:12:05;;;;;;;6.65;4.58;;;;;;;5.70;56.33;102130.11;1678751;85;21194;-60
2021/03/02 06:14:38;;;;;;;8.58;5.95;;;;;;;5.72;56.48;102128.04;1747305;82;21590;-65
2021/03/02 06:17:04;;;;;;;7.85;5.10;;;;;;;5.73;56.57;102132.43;1747696;81;21582;-60
2021/03/02 06:19:46;;;;;;;8.10;5.58;;;;;;;5.80;56.86;102141.37;1746580;82;21111;-65
2021/03/02 06:22:35;;;;;;;8.38;5.35;;;;;;;5.83;56.89;102134.04;1743256;82;21474;-60
2021/03/02 06:25:07;;;;;;;8.05;5.85;;;;;;;5.83;56.85;102128.41;1744429;82;21156;-59
2021/03/02 06:27:34;;;;;;;10.05;6.72;;;;;;;5.81;57.11;102131.39;1730896;82;21187;-60
2021/03/02 06:30:16;;;;;;;8.63;5.92;;;;;;;5.82;57.28;102135.78;1643762;84;21211;-59
2021/03/02 06:32:54;;;;;;;8.88;6.22;;;;;;;5.81;57.50;102134.87;1688282;84;21132;-65
2021/03/02 06:35:42;;;;;;;7.30;4.92;;;;;;;5.79;57.91;102127.39;1707422;83;21293;-64
2021/03/02 06:38:08;;;;;;;8.38;5.65;;;;;;;5.84;58.66;102131.90;1706357;84;21314;-60
2021/03/02 06:40:44;;;;;;;8.73;5.72;;;;;;;5.86;58.79;102125.91;1707117;83;21164;-59
2021/03/02 06:43:39;;;;;;;11.22;6.50;;;;;;;5.84;58.90;102117.53;1705225;84;21622;-64
2021/03/02 06:46:08;;;;;;;9.58;6.55;;;;;;;5.85;59.07;102123.22;1698689;83;21308;-58
2021/03/02 06:48:57;;;;;;;9.05;6.15;;;;;;;5.85;59.32;102124.13;1687245;84;21143;-58
2021/03/02 06:51:31;;;;;;;9.53;6.37;;;;;;;5.89;59.63;102116.88;1704510;83;21200;-64
2021/03/02 06:54:10;;;;;;;10.55;7.00;;;;;;;5.95;59.61;102107.95;1704112;84;21136;-64
2021/03/02 06:56:39;;;;;;;9.30;5.78;;;;;;;6.00;59.65;102109.42;1682186;83;21333;-65
2021/03/02 06:59:16;;;;;;;10.15;6.60;;;;;;;6.15;60.55;102102.95;1678909;85;21203;-58
2021/03/02 07:01:48;;;;;;;9.60;6.37;;;;;;;6.15;60.13;102109.49;1680366;84;21150;-58
2021/03/02 07:04:19;;;;;;;11.35;6.08;;;;;;;6.16;60.12;102112.58;1712329;83;21167;-58
2021/03/02 07:06:51;;;;;;;9.38;6.22;;;;;;;6.16;60.12;102103.42;1725465;83;21119;-64
2021/03/02 07:09:17;;;;;;;12.53;6.75;;;;;;;6.19;60.16;102102.19;1725441;83;21151;-64
2021/03/02 07:11:45;;;;;;;10.65;6.50;;;;;;;6.21;60.18;102100.52;1725385;83;21618;-58
2021/03/02 07:14:14;;;;;;;9.43;6.55;;;;;;;6.29;60.16;102098.18;1713351;83;21752;-64
2021/03/02 07:16:46;;;;;;;8.85;6.17;;;;;;;6.33;59.89;102103.55;1712168;83;21628;-58
2021/03/02 07:19:20;;;;;;;9.38;6.05;;;;;;;6.44;59.73;102101.27;1721960;83;21558;-58
2021/03/02 07:21:50;;;;;;;9.63;6.75;;;;;;;6.54;59.59;102098.56;1720072;83;21627;-58
2021/03/02 07:24:19;;;;;;;10.00;7.05;;;;;;;6.64;59.29;102099.73;1716740;83;21174;-64
2021/03/02 07:26:47;;;;;;;9.75;5.75;;;;;;;6.67;59.13;102094.16;1725321;83;21193;-64
2021/03/02 07:29:15;;;;;;;10.03;6.10;;;;;;;6.76;59.13;102100.13;1721755;83;21582;-64
2021/03/02 07:31:43;;;;;;;11.83;7.45;;;;;;;6.82;58.93;102096.80;1705301;83;21179;-64
2021/03/02 07:34:11;;;;;;;9.15;6.65;;;;;;;6.85;58.73;102095.15;1682330;84;21112;-64
2021/03/02 07:36:42;;;;;;;11.55;7.62;;;;;;;6.88;58.59;102093.47;1677700;85;21121;-59
2021/03/02 07:39:20;;;;;;;8.93;6.25;;;;;;;6.87;58.60;102089.07;1743194;82;21289;-60
2021/03/02 07:41:49;;;;;;;11.48;8.33;;;;;;;6.92;58.39;102088.39;1718510;83;21313;-59
2021/03/02 07:44:16;;;;;;;11.70;7.92;;;;;;;6.97;58.17;102088.52;1738930;82;21182;-59
2021/03/02 07:46:48;;;;;;;10.63;7.75;;;;;;;6.96;57.18;102085.02;1731303;82;21305;-60
2021/03/02 07:49:30;;;;;;;10.75;7.80;;;;;;;6.98;57.51;102076.80;1711915;84;21292;-60
2021/03/02 07:52:09;;;;;;;9.50;7.28;;;;;;;7.05;57.52;102077.86;1748090;82;21179;-59
2021/03/02 07:54:37;;;;;;;9.88;7.50;;;;;;;7.07;56.26;102076.58;1748206;82;21131;-59
2021/03/02 07:57:19;;;;;;;8.43;6.45;;;;;;;7.06;56.35;102078.33;1748085;82;21191;-64
2021/03/02 08:00:21;;;;;;;10.20;7.87;;;;;;;7.03;55.43;102069.50;1727920;81;21204;-65
2021/03/02 08:03:20;;;;;;;10.78;8.15;;;;;;;7.07;56.32;102072.65;1722460;82;21092;-59
2021/03/02 08:05:53;;;;;;;10.98;7.10;;;;;;;7.13;56.18;102067.59;1748207;81;21305;-65
2021/03/02 08:08:28;;;;;;;10.05;7.60;;;;;;;7.20;56.05;102059.52;1693755;84;21151;-60
2021/03/02 08:11:05;;;;;;;7.65;5.65;;;;;;;7.27;56.18;102062.34;1735127;81;21155;-65
2021/03/02 08:13:42;;;;;;;6.65;4.83;;;;;;;7.34;55.36;102054.66;1717952;82;21154;-60
2021/03/02 08:16:15;;;;;;;9.15;6.67;;;;;;;7.29;53.53;102047.56;1747372;82;21119;-65
2021/03/02 08:18:44;;;;;;;6.03;3.92;;;;;;;7.39;54.99;102046.08;1704408;84;21114;-60
2021/03/02 08:21:18;;;;;;;5.92;3.87;;;;;;;7.47;53.72;102043.69;1737025;82;21193;-65
2021/03/02 08:23:57;;;;;;;5.45;4.30;;;;;;;7.46;53.44;102030.53;1748387;82;21547;-65
2021/03/02 08:26:34;;;;;;;6.22;4.37;;;;;;;7.51;53.49;102035.47;1747609;81;21139;-60
2021/03/02 08:29:15;;;;;;;4.87;3.98;;;;;;;7.60;53.56;102031.80;1683587;84;21151;-65
2021/03/02 08:31:45;;;;;;;6.42;4.08;;;;;;;7.69;53.78;102025.90;1752042;81;21558;-60
2021/03/02 08:34:17;;;;;;;5.42;3.62;;;;;;;7.73;53.15;102023.83;1754615;82;21175;-60
2021/03/02 08:36:50;;;;;;;5.83;3.40;;;;;;;7.73;52.99;102018.58;1754826;82;21162;-65
2021/03/02 08:39:20;;;;;;;5.35;3.30;;;;;;;7.74;52.78;102015.11;1756333;82;21946;-65
2021/03/02 08:41:49;;;;;;;5.25;3.65;;;;;;;7.81;53.15;102002.63;1755772;82;21187;-60
2021/03/02 08:44:21;;;;;;;5.20;3.65;;;;;;;7.87;52.97;102010.66;1748183;82;21147;-64
2021/03/02 08:46:54;;;;;;;5.65;4.08;;;;;;;7.91;53.36;102001.12;1719564;83;21689;-57
2021/03/02 08:49:23;;;;;;;6.12;4.65;;;;;;;7.96;53.34;102003.84;1756031;81;21174;-62
2021/03/02 08:52:01;;;;;;;10.50;6.87;;;;;;;8.01;53.54;101995.67;1756095;81;21199;-63
2021/03/02 08:54:28;;;;;;;7.00;4.33;;;;;;;8.07;53.93;101997.13;1756054;82;21142;-58
2021/03/02 08:57:02;;;;;;;5.90;3.77;;;;;;;8.15;53.86;101992.96;1735952;82;21159;-57
2021/03/02 08:59:30;;;;;;;6.10;4.20;;;;;;;8.21;53.84;101985.65;1725414;82;21638;-64
2021/03/02 09:01:58;;;;;;;5.87;3.60;;;;;;;8.30;53.80;101978.44;1748067;82;21147;-59
2021/03/02 09:04:33;;;;;;;5.47;4.08;;;;;;;8.33;53.18;101982.00;1751177;81;21142;-64
2021/03/02 09:07:01;;;;;;;5.37;3.47;;;;;;;8.37;53.09;101978.14;1740744;82;21275;-59
2021/03/02 09:09:30;;;;;;;5.33;3.50;;;;;;;8.45;53.09;101981.83;1720160;83;21572;-59
2021/03/02 09:11:58;;;;;;;5.55;3.55;;;;;;;8.49;52.65;101977.14;1719983;83;21154;-59
2021/03/02 09:14:33;;;;;;;5.53;3.60;;;;;;;8.49;52.40;101967.95;1756049;82;21162;-59
2021/03/02 09:17:04;;;;;;;5.12;3.08;;;;;;;8.54;51.97;101971.98;1756224;82;21218;-64
2021/03/02 09:19:42;;;;;;;4.75;2.98;;;;;;;8.46;51.72;101960.86;1756052;80;21147;-59
2021/03/02 09:22:16;;;;;;;4.65;2.77;;;;;;;8.47;51.83;101965.25;1755616;82;21130;-63
2021/03/02 09:24:55;;;;;;;4.12;3.00;;;;;;;8.53;51.93;101961.92;1756322;81;21710;-60
2021/03/02 09:27:33;;;;;;;5.28;3.42;;;;;;;8.60;51.61;101957.27;1755993;82;21202;-64
2021/03/02 09:30:01;;;;;;;6.03;2.85;;;;;;;8.69;51.72;101947.80;1756267;82;21663;-60
2021/03/02 09:32:30;;;;;;;3.98;2.70;;;;;;;8.75;50.94;101944.89;1739028;81;21320;-59
2021/03/02 09:35:01;;;;;;;3.52;2.30;;;;;;;8.84;51.33;101941.55;1758443;81;21326;-63
2021/03/02 09:37:29;;;;;;;7.10;2.62;;;;;;;8.98;50.92;101943.58;1758013;81;21306;-64
2021/03/02 09:40:09;;;;;;;3.45;2.20;;;;;;;9.00;50.68;101932.23;1758458;81;21582;-63
2021/03/02 09:42:39;;;;;;;3.40;2.05;;;;;;;9.03;50.25;101937.55;1731295;81;21289;-59
2021/03/02 09:45:18;;;;;;;4.30;2.55;;;;;;;9.05;50.18;101927.09;1726913;83;21624;-63
2021/03/02 09:47:48;;;;;;;3.10;2.12;;;;;;;9.21;50.55;101929.12;1727177;83;21179;-63
2021/03/02 09:50:18;;;;;;;3.98;2.20;;;;;;;9.33;49.72;101924.50;1737651;81;21265;-59
2021/03/02 09:52:48;;;;;;;4.45;2.67;;;;;;;9.43;49.30;101922.95;1758098;81;21176;-59
2021/03/02 09:55:26;;;;;;;17.42;8.00;;;;;;;9.48;48.96;101906.83;1758388;81;21582;-60
2021/03/02 09:58:16;;;;;;;6.20;3.02;;;;;;;9.60;49.36;101911.81;1758164;81;21201;-61
2021/03/02 10:00:50;;;;;;;3.92;2.10;;;;;;;9.85;49.13;101909.14;1751534;81;21155;-59
2021/03/02 10:03:37;;;;;;;5.05;3.02;;;;;;;9.87;47.69;101902.61;1757483;81;21107;-64
2021/03/02 10:06:06;;;;;;;4.55;2.40;;;;;;;10.07;48.27;101895.00;1697557;83;21191;-63
2021/03/02 10:08:38;;;;;;;6.33;3.02;;;;;;;10.39;48.53;101892.81;1757497;81;21127;-63
2021/03/02 10:11:18;;;;;;;11.28;5.65;;;;;;;10.66;48.25;101888.77;1758100;81;21172;-59
2021/03/02 10:13:50;;;;;;;4.20;2.52;;;;;;;11.01;47.51;101886.08;1758648;81;21123;-60
2021/03/02 10:16:31;;;;;;;3.67;2.45;;;;;;;11.09;46.06;101880.42;1758128;81;21171;-64
2021/03/02 10:19:14;;;;;;;5.35;2.80;;;;;;;11.04;46.29;101886.08;1757705;81;21111;-63
2021/03/02 10:21:56;;;;;;;6.45;3.05;;;;;;;11.13;45.71;101874.77;1758100;81;21119;-65
2021/03/02 10:24:32;;;;;;;4.62;3.30;;;;;;;11.30;45.70;101874.91;1758437;81;21130;-64
2021/03/02 10:27:09;;;;;;;3.90;2.40;;;;;;;11.37;45.82;101862.23;1754902;81;21135;-60
2021/03/02 10:29:37;;;;;;;7.55;4.20;;;;;;;11.12;44.44;101856.73;1758209;81;21035;-63
2021/03/02 10:32:06;;;;;;;4.37;2.90;;;;;;;10.99;44.76;101853.11;1752228;81;21155;-61
2021/03/02 10:34:36;;;;;;;5.37;3.52;;;;;;;11.11;46.07;101858.92;1747931;81;21062;-63
2021/03/02 10:37:06;;;;;;;4.90;3.72;;;;;;;11.23;45.51;101842.78;1748062;82;21237;-64
2021/03/02 10:39:34;;;;;;;5.55;3.17;;;;;;;11.30;45.38;101834.92;1746046;81;21024;-64
2021/03/02 10:42:03;;;;;;;5.60;3.00;;;;;;;11.40;45.14;101838.53;1748084;82;21099;-64
2021/03/02 10:44:31;;;;;;;6.47;3.10;;;;;;;11.52;45.43;101823.23;1747970;82;21039;-64
2021/03/02 10:46:59;;;;;;;4.40;3.35;;;;;;;11.40;44.84;101826.67;1733965;82;21539;-60
2021/03/02 10:49:26;;;;;;;4.92;3.45;;;;;;;11.31;44.66;101822.64;1716775;83;21044;-67
2021/03/02 10:51:54;;;;;;;5.03;3.22;;;;;;;11.09;45.39;101815.86;1716829;83;21104;-64
2021/03/02 10:54:22;;;;;;;5.70;3.90;;;;;;;11.07;45.57;101811.02;1717035;83;21503;-63
2021/03/02 10:56:49;;;;;;;8.63;5.40;;;;;;;11.13;45.69;101814.16;1718856;82;21056;-64
2021/03/02 10:59:17;;;;;;;8.23;5.20;;;;;;;11.11;46.21;101807.53;1744822;82;21024;-60
2021/03/02 11:01:48;;;;;;;7.33;4.60;;;;;;;11.27;46.56;101802.40;1740963;82;21079;-64
2021/03/02 11:04:15;;;;;;;6.70;4.72;;;;;;;11.28;45.50;101799.77;1725167;81;21509;-63
2021/03/02 11:06:44;;;;;;;5.17;3.75;;;;;;;11.22;45.84;101791.84;1716877;82;21111;-60
2021/03/02 11:09:14;;;;;;;5.67;3.87;;;;;;;11.31;45.91;101789.24;1716758;83;21060;-61
2021/03/02 11:11:41;;;;;;;6.42;4.17;;;;;;;11.50;46.13;101781.89;1722352;82;21117;-63
2021/03/02 11:14:09;;;;;;;7.50;4.40;;;;;;;11.62;45.27;101778.02;1686134;84;21066;-61
2021/03/02 11:16:37;;;;;;;6.90;4.20;;;;;;;11.78;45.90;101770.20;1747152;81;21119;-63
2021/03/02 11:19:05;;;;;;;7.03;4.97;;;;;;;11.89;44.85;101764.09;1747995;82;21044;-60
2021/03/02 11:21:34;;;;;;;6.35;4.37;;;;;;;11.97;44.74;101752.24;1748093;81;21124;-60
2021/03/02 11:24:01;;;;;;;7.30;4.70;;;;;;;12.05;44.73;101748.37;1747718;82;21030;-64
2021/03/02 11:26:30;;;;;;;5.53;4.05;;;;;;;11.88;44.39;101737.27;1748109;82;21547;-64
2021/03/02 11:28:58;;;;;;;7.35;5.05;;;;;;;11.82;44.69;101741.19;1747779;81;21119;-60
2021/03/02 11:31:25;;;;;;;7.05;4.78;;;;;;;11.93;44.81;101743.00;1695267;83;21855;-61
2021/03/02 11:33:53;;;;;;;6.67;4.50;;;;;;;12.00;44.93;101740.87;1752349;82;21016;-63
2021/03/02 11:36:21;;;;;;;5.80;4.15;;;;;;;12.12;44.53;101740.02;1718639;83;21130;-63
2021/03/02 11:38:49;;;;;;;5.05;3.92;;;;;;;12.22;44.82;101722.02;1756164;81;21510;-61
2021/03/02 11:41:17;;;;;;;5.67;4.25;;;;;;;12.29;44.94;101730.40;1751062;82;21047;-64
2021/03/02 11:43:45;;;;;;;6.92;4.20;;;;;;;12.28;44.05;101719.82;1720029;83;21059;-64
2021/03/02 11:46:13;;;;;;;5.80;4.12;;;;;;;12.26;43.99;101721.58;1754079;81;21549;-64